createdAt,value
2022-10-17T00:01:10.980Z,0
2022-10-17T00:06:22.765Z,0
2022-10-17T00:11:34.717Z,0
2022-10-17T00:16:46.616Z,0
2022-10-17T00:21:58.405Z,0
2022-10-17T00:27:10.287Z,0
2022-10-17T00:32:22.336Z,0
2022-10-17T00:37:34.424Z,0
2022-10-17T00:42:46.259Z,0
2022-10-17T00:47:57.993Z,0
2022-10-17T00:53:10.664Z,0
2022-10-17T00:58:22.327Z,0
2022-10-17T01:03:34.245Z,0
2022-10-17T01:08:46.055Z,0
2022-10-17T01:19:09.574Z,0
2022-10-17T01:24:21.608Z,0
2022-10-17T01:29:33.819Z,0
2022-10-17T01:34:45.675Z,0
2022-10-17T01:39:57.659Z,0
2022-10-17T01:45:09.719Z,0
2022-10-17T01:50:21.814Z,0
2022-10-17T01:55:33.605Z,0
2022-10-17T02:00:45.989Z,0
2022-10-17T02:05:57.626Z,0
2022-10-17T02:11:09.939Z,0
2022-10-17T02:16:33.405Z,0
2022-10-17T02:21:45.396Z,0
2022-10-17T02:26:57.157Z,0
2022-10-17T02:32:09.295Z,0
2022-10-17T02:37:21.183Z,1
2022-10-17T02:42:33.608Z,0
2022-10-17T02:47:45.499Z,0
2022-10-17T02:52:57.206Z,0
2022-10-17T02:58:09.013Z,0
2022-10-17T03:03:20.937Z,0
2022-10-17T03:08:33.035Z,0
2022-10-17T03:13:44.788Z,0
2022-10-17T03:18:56.651Z,0
2022-10-17T03:24:08.497Z,0
2022-10-17T03:29:20.225Z,0
2022-10-17T03:34:32.771Z,0
2022-10-17T03:39:44.454Z,0
2022-10-17T03:44:56.325Z,0
2022-10-17T03:50:08.241Z,0
2022-10-17T03:55:20.097Z,1
2022-10-17T04:00:31.881Z,0
2022-10-17T04:05:43.614Z,0
2022-10-17T04:10:55.510Z,0
2022-10-17T04:16:07.352Z,0
2022-10-17T04:21:19.253Z,0
2022-10-17T04:26:31.015Z,0
2022-10-17T04:31:42.832Z,0
2022-10-17T04:36:54.603Z,0
2022-10-17T04:42:06.396Z,0
2022-10-17T04:47:18.240Z,1
2022-10-17T04:52:31.825Z,0
2022-10-17T04:57:43.411Z,1
2022-10-17T05:02:55.289Z,1
2022-10-17T05:08:07.334Z,0
2022-10-17T05:13:18.970Z,0
2022-10-17T05:18:30.759Z,0
2022-10-17T05:23:42.746Z,0
2022-10-17T05:28:55.022Z,0
2022-10-17T05:34:14.370Z,0
2022-10-17T05:39:28.730Z,0
2022-10-17T05:44:40.407Z,0
2022-10-17T05:49:53.467Z,0
2022-10-17T05:55:05.039Z,0
2022-10-17T06:00:16.979Z,0
2022-10-17T06:05:28.837Z,0
2022-10-17T06:10:40.751Z,0
2022-10-17T06:15:52.767Z,0
2022-10-17T06:21:04.576Z,0
2022-10-17T06:26:16.600Z,0
2022-10-17T06:31:28.449Z,0
2022-10-17T06:36:40.438Z,0
2022-10-17T06:41:52.394Z,0
2022-10-17T06:47:04.438Z,0
2022-10-17T06:52:16.397Z,0
2022-10-17T06:57:29.849Z,0
2022-10-17T07:02:41.879Z,0
2022-10-17T07:07:53.716Z,0
2022-10-17T07:13:05.784Z,0
2022-10-17T07:18:25.678Z,0
2022-10-17T07:23:39.527Z,0
2022-10-17T07:28:51.687Z,0
2022-10-17T07:34:03.500Z,0
2022-10-17T07:39:15.505Z,0
2022-10-17T07:44:27.461Z,0
2022-10-17T07:49:39.655Z,0
2022-10-17T07:54:51.775Z,0
2022-10-17T08:00:03.527Z,0
2022-10-17T08:05:15.510Z,0
2022-10-17T08:10:27.690Z,0
2022-10-17T08:15:39.666Z,0
2022-10-17T08:20:54.562Z,0
2022-10-17T08:26:15.039Z,0
2022-10-17T08:31:27.443Z,0
2022-10-17T08:36:39.293Z,0
2022-10-17T08:41:51.290Z,0
2022-10-17T08:47:03.628Z,0
2022-10-17T08:52:15.585Z,0
2022-10-17T08:57:29.787Z,0
2022-10-17T09:02:44.188Z,0
2022-10-17T09:07:55.836Z,0
2022-10-17T09:13:08.675Z,0
2022-10-17T09:18:23.002Z,0
2022-10-17T09:23:36.976Z,1
2022-10-17T09:28:54.339Z,1
2022-10-17T09:34:06.747Z,3
2022-10-17T09:39:18.987Z,4
2022-10-17T09:44:31.451Z,5
2022-10-17T09:49:43.546Z,6
2022-10-17T09:54:55.768Z,6
2022-10-17T10:00:08.382Z,8
2022-10-17T10:05:20.809Z,9
2022-10-17T10:10:32.938Z,10
2022-10-17T10:15:45.058Z,11
2022-10-17T10:20:57.740Z,12
2022-10-17T10:26:13.123Z,14
2022-10-17T10:31:24.643Z,16
2022-10-17T10:36:37.968Z,15
2022-10-17T10:41:49.980Z,16
2022-10-17T10:47:02.264Z,16
2022-10-17T10:52:14.621Z,17
2022-10-17T10:57:28.659Z,18
2022-10-17T11:02:43.195Z,19
2022-10-17T11:07:55.740Z,23
2022-10-17T11:13:11.475Z,37
2022-10-17T11:18:26.497Z,87
2022-10-17T11:23:40.990Z,77
2022-10-17T11:28:55.477Z,70
2022-10-17T11:34:09.030Z,68
2022-10-17T11:39:22.093Z,66
2022-10-17T11:44:35.276Z,65
2022-10-17T11:49:53.225Z,64
2022-10-17T12:00:20.282Z,60
2022-10-17T12:05:32.936Z,60
2022-10-17T12:15:55.991Z,64
2022-10-17T12:26:19.988Z,63
2022-10-17T12:36:46.004Z,62
2022-10-17T12:42:02.387Z,59
2022-10-17T12:57:36.732Z,60
2022-10-17T14:35:58.350Z,82
2022-10-17T14:41:44.849Z,82
2022-10-17T15:02:23.126Z,81
2022-10-17T15:07:35.724Z,81
2022-10-17T15:13:30.334Z,84
2022-10-17T15:18:46.439Z,83
2022-10-17T17:45:20.579Z,26
2022-10-17T17:50:32.741Z,24
2022-10-17T17:55:44.777Z,21
2022-10-17T18:00:57.305Z,19
2022-10-17T18:06:09.902Z,19
2022-10-17T18:11:23.089Z,20
2022-10-17T18:16:34.843Z,20
2022-10-17T18:21:46.978Z,15
2022-10-17T18:26:59.256Z,14
2022-10-17T18:32:12.103Z,9
2022-10-17T18:37:24.227Z,9
2022-10-17T18:42:36.241Z,10
2022-10-17T18:47:48.393Z,12
2022-10-17T18:53:00.408Z,10
2022-10-17T18:58:12.448Z,11
2022-10-17T19:03:24.894Z,9
2022-10-17T19:08:37.081Z,8
2022-10-17T19:13:49.303Z,8
2022-10-17T19:19:01.533Z,8
2022-10-17T19:24:13.528Z,6
2022-10-17T19:29:25.814Z,4
2022-10-17T19:34:38.110Z,4
2022-10-17T19:39:50.164Z,4
2022-10-17T19:45:02.195Z,3
2022-10-17T19:50:14.184Z,3
2022-10-17T19:55:26.347Z,2
2022-10-17T20:00:38.458Z,2
2022-10-17T20:05:50.563Z,2
2022-10-17T20:11:02.576Z,2
2022-10-17T20:16:14.366Z,2
2022-10-17T20:21:26.385Z,2
2022-10-17T20:26:40.536Z,2
2022-10-17T20:31:51.889Z,2
2022-10-17T20:37:03.952Z,2
2022-10-17T20:42:16.099Z,1
2022-10-17T20:47:52.823Z,1
2022-10-17T23:39:55.177Z,0
2022-10-17T23:45:09.211Z,0
2022-10-17T23:50:23.778Z,0
2022-10-17T23:55:38.564Z,0
